Flight Track Log - Related Links

Times and Time Zones

All times are in EDT time to prevent confusion due to time zone crossing. See the RPA3436 flight status page for this flight to view local times or setup timezone preferences in your user account.

Time Position Orientation Groundspeed Altitude Reporting Facility
EDT Latitude Longitude Course Direction KTS MPH feet Rate Location/Type
Thu 08:20:02 AM 33.0561 -80.0028 90° East 282 325 7,200  Level Jacksonville Center
Thu 08:21:02 AM 33.1369 -79.9728 17° North 293 337 10,500 3,250 Climbing Jacksonville Center
Thu 08:22:02 AM 33.2197 -79.9428 17° North 303 349 13,700 3,250 Climbing Jacksonville Center
Thu 08:23:02 AM 33.3192 -79.9172 12° North 318 366 17,000 3,000 Climbing Jacksonville Center
Thu 08:24:00 AM 33.6868 -79.6698 90° East  Level Estimated
Thu 08:24:02 AM 33.4125 -79.8892 14° North 329 379 19,700  Level Jacksonville Center
Thu 08:25:02 AM 33.5058 -79.8636 13° North 334 384 22,000 2,100 Climbing Jacksonville Center
Thu 08:26:02 AM 33.6072 -79.8328 14° North 347 399 23,900 2,000 Climbing Jacksonville Center
Thu 08:27:02 AM 33.7111 -79.8067 12° North 358 412 26,000 1,800 Climbing Jacksonville Center
Thu 08:28:02 AM 33.8189 -79.7753 14° North 376 433 27,500 1,600 Climbing Jacksonville Center
Thu 08:29:02 AM 33.9128 -79.6944 36° Northeast 397 457 29,200 1,338 Climbing Jacksonville Center
Thu 08:30:39 AM 34.0397 -79.5414 45° Northeast 416 479 31,000 688 Climbing Washington Center
Thu 08:31:39 AM 34.1203 -79.4397 46° Northeast 416 479 31,000  Level Washington Center
Thu 08:32:37 AM 34.2050 -79.3383 45° Northeast 422 486 31,000  Level Washington Center
Thu 08:33:37 AM 34.2997 -79.2447 39° Northeast 422 486 31,000  Level Washington Center
Thu 08:34:39 AM 34.4017 -79.1861 25° Northeast 416 479 31,000  Level Washington Center
Thu 08:35:37 AM 34.5078 -79.1253 25° Northeast 410 472 31,000  Level Washington Center
Thu 08:36:37 AM 34.6117 -79.0642 26° Northeast 410 472 31,000  Level Washington Center
Thu 08:37:38 AM 34.7156 -79.0056 25° Northeast 410 472 31,000  Level Washington Center
Thu 08:38:39 AM 34.8217 -78.9442 25° Northeast 410 472 31,000  Level Washington Center
Thu 08:39:39 AM 34.9256 -78.8825 26° Northeast 410 472 31,000  Level Washington Center
Thu 08:40:37 AM 35.0294 -78.8233 25° Northeast 410 472 31,000  Level Washington Center
Thu 08:41:38 AM 35.1356 -78.7617 25° Northeast 410 472 31,000  Level Washington Center
Thu 08:42:39 AM 35.2394 -78.6997 26° Northeast 410 472 31,000  Level Washington Center
Thu 08:43:40 AM 35.3453 -78.6375 26° Northeast 415 478 31,000  Level Washington Center
Thu 08:44:37 AM 35.4514 -78.5728 26° Northeast 415 478 31,000  Level Washington Center
Thu 08:45:38 AM 35.5550 -78.5103 26° Northeast 415 478 31,000 -148 Level Washington Center
Thu 08:46:39 AM 35.6544 -78.4525 25° Northeast 415 478 30,700 -645 Descending Washington Center
Thu 08:47:39 AM 35.7581 -78.3922 25° Northeast 415 478 29,700 -1,017 Descending Washington Center
Thu 08:48:37 AM 35.8619 -78.3292 26° Northeast 409 471 28,700 -1,008 Descending Washington Center
Thu 08:49:38 AM 35.9633 -78.2711 25° Northeast 409 471 27,700 -843 Descending Washington Center
Thu 08:50:38 AM 36.0669 -78.2078 26° Northeast 409 471 27,000 -347 Descending Washington Center
Thu 08:51:39 AM 36.1686 -78.1469 26° Northeast 409 471 27,000  Level Washington Center
Thu 08:52:39 AM 36.2700 -78.0833 27° Northeast 409 471 27,000  Level Washington Center
Thu 08:53:37 AM 36.3756 -78.0194 26° Northeast 409 471 27,000  Level Washington Center
Thu 08:54:37 AM 36.4875 -77.9506 26° Northeast 409 471 27,000  Level Washington Center
Thu 08:55:38 AM 36.5931 -77.8839 27° Northeast 414 476 27,000  Level Washington Center
Thu 08:56:39 AM 36.6967 -77.8197 26° Northeast 414 476 27,000  Level Washington Center
Thu 08:57:37 AM 36.8019 -77.7578 25° Northeast 414 476 27,000  Level Washington Center
Thu 08:58:38 AM 36.9056 -77.6933 26° Northeast 414 476 27,000 -393 Level Washington Center
Thu 08:59:39 AM 37.0119 -77.6858 North 384 442 26,200 -885 Descending Washington Center
Thu 09:00:40 AM 37.0964 -77.7506 329° Northwest 347 399 25,200 -1,017 Descending Washington Center
Thu 09:01:37 AM 37.1806 -77.8156 328° Northwest 346 398 24,200 -1,017 Descending Washington Center
Thu 09:02:38 AM 37.2836 -77.7767 17° North 346 398 23,200 -984 Descending Washington Center
Thu 09:03:39 AM 37.3747 -77.7008 33° Northeast 360 414 22,200 -605 Descending Washington Center
Thu 09:04:37 AM 37.4575 -77.6117 41° Northeast 366 421 22,000 -203 Descending Washington Center
Thu 09:05:37 AM 37.5425 -77.5222 40° Northeast 380 437 21,800 -595 Descending Washington Center
Thu 09:06:38 AM 37.6253 -77.4350 40° Northeast 386 444 20,800 -1,279 Descending Washington Center
Thu 09:07:39 AM 37.7078 -77.3478 40° Northeast 386 444 19,200 -1,686 Descending Washington Center
Thu 09:08:39 AM 37.7883 -77.2656 39° Northeast 381 438 17,400 -1,846 Descending Washington Center
Thu 09:09:36 AM 37.8803 -77.2414 12° North 347 399 15,600 -1,831 Descending Washington Center
Thu 09:10:37 AM 37.9703 -77.2222 10° North 336 387 13,800 -1,672 Descending Washington Center
Thu 09:11:38 AM 38.0497 -77.2108 North 324 373 12,200 -1,686 Descending Washington Center
Thu 09:12:38 AM 38.1356 -77.1914 10° North 313 360 10,400 -1,091 Descending Washington Center
Thu 09:13:39 AM 38.2256 -77.1697 11° North 303 349 10,000 -203 Descending Washington Center
Thu 09:14:36 AM 38.2922 -77.1553 10° North 303 349 10,000  Level Washington Center
Thu 09:15:37 AM 38.3864 -77.1386 North 303 349 10,000  Level Washington Center
Thu 09:16:38 AM 38.4681 -77.1217 North 298 343 10,000 -639 Level Washington Center
Thu 09:17:39 AM 38.5517 -77.1047 North 298 343 8,700 -1,714 Descending Washington Center
Thu 09:18:37 AM 38.6394 -77.0853 10° North 293 337 6,600 -1,361 Descending Washington Center
Thu 09:19:38 AM 38.7125 -77.0708 North 278 320 6,000 -298 Descending Washington Center
Thu 09:20:38 AM 38.7750 -77.0803 353° North 242 278 6,000 -263 Level Washington Center
Thu 09:21:55 AM 38.8500 -77.1333 331° Northwest 235 270 5,400 -438 Descending Potomac TRACON
Thu 09:22:55 AM 38.8833 -77.1833 311° West 227 261 5,000 -200 Descending Potomac TRACON
Thu 09:23:55 AM 38.9333 -77.2333 322° Northwest 194 223 5,000 -579 Level Potomac TRACON
Thu 09:24:49 AM 38.9667 -77.2000 38° Northeast 181 208 3,900 -1,158 Descending Potomac TRACON
Thu 09:25:49 AM 38.9667 -77.1500 90° East 192 221 2,800 -850 Descending Potomac TRACON
Thu 09:26:49 AM 38.9333 -77.1167 142° Southeast 166 191 2,200 -737 Descending Potomac TRACON
Thu 09:27:43 AM 38.9000 -77.0833 142° Southeast 157 181 1,400 -895 Descending Potomac TRACON
Thu 09:28:43 AM 38.8833 -77.0500 123° Southeast 131 151 500 -900 Descending Potomac TRACON

Login

Don't have an account? Register now (free) for customized features, flight alerts, and more!